sensor_id;sensor_type;location;lat;lon;timestamp;P1;durP1;ratioP1;P2;durP2;ratioP2
66761;SDS011;53672;48.176;16.338;2022-10-16T00:03:01;226.43;;;53.20;;
66761;SDS011;53672;48.176;16.338;2022-10-16T00:08:02;165.93;;;49.85;;
66761;SDS011;53672;48.176;16.338;2022-10-16T00:13:03;313.30;;;54.13;;
66761;SDS011;53672;48.176;16.338;2022-10-16T00:18:05;375.20;;;55.42;;
66761;SDS011;53672;48.176;16.338;2022-10-16T00:23:05;340.07;;;50.43;;
66761;SDS011;53672;48.176;16.338;2022-10-16T00:28:06;240.93;;;49.10;;
66761;SDS011;53672;48.176;16.338;2022-10-16T00:33:08;163.33;;;48.47;;
66761;SDS011;53672;48.176;16.338;2022-10-16T00:38:08;147.93;;;45.08;;
66761;SDS011;53672;48.176;16.338;2022-10-16T00:48:35;184.27;;;46.22;;
66761;SDS011;53672;48.176;16.338;2022-10-16T00:53:36;155.40;;;44.63;;
66761;SDS011;53672;48.176;16.338;2022-10-16T00:58:37;173.67;;;44.17;;
66761;SDS011;53672;48.176;16.338;2022-10-16T01:03:39;184.60;;;44.40;;
66761;SDS011;53672;48.176;16.338;2022-10-16T01:08:43;125.15;;;41.05;;
66761;SDS011;53672;48.176;16.338;2022-10-16T01:13:50;117.60;;;39.88;;
66761;SDS011;53672;48.176;16.338;2022-10-16T01:18:56;127.60;;;42.17;;
66761;SDS011;53672;48.176;16.338;2022-10-16T01:24:04;118.18;;;40.38;;
66761;SDS011;53672;48.176;16.338;2022-10-16T01:29:13;106.90;;;40.75;;
66761;SDS011;53672;48.176;16.338;2022-10-16T01:34:20;115.82;;;40.33;;
66761;SDS011;53672;48.176;16.338;2022-10-16T01:39:26;122.18;;;40.72;;
66761;SDS011;53672;48.176;16.338;2022-10-16T01:44:33;114.23;;;41.53;;
66761;SDS011;53672;48.176;16.338;2022-10-16T01:49:37;113.50;;;42.33;;
66761;SDS011;53672;48.176;16.338;2022-10-16T01:54:40;103.22;;;39.08;;
66761;SDS011;53672;48.176;16.338;2022-10-16T01:59:45;121.82;;;41.95;;
66761;SDS011;53672;48.176;16.338;2022-10-16T02:04:48;110.65;;;41.17;;
66761;SDS011;53672;48.176;16.338;2022-10-16T02:09:53;133.00;;;41.60;;
66761;SDS011;53672;48.176;16.338;2022-10-16T02:14:55;222.65;;;43.03;;
66761;SDS011;53672;48.176;16.338;2022-10-16T02:19:56;107.05;;;37.65;;
66761;SDS011;53672;48.176;16.338;2022-10-16T02:24:59;106.63;;;38.22;;
66761;SDS011;53672;48.176;16.338;2022-10-16T02:30:07;139.45;;;39.00;;
66761;SDS011;53672;48.176;16.338;2022-10-16T02:35:13;141.43;;;39.10;;
66761;SDS011;53672;48.176;16.338;2022-10-16T02:40:16;146.35;;;39.25;;
66761;SDS011;53672;48.176;16.338;2022-10-16T02:45:19;147.18;;;38.20;;
66761;SDS011;53672;48.176;16.338;2022-10-16T02:50:21;108.30;;;37.40;;
66761;SDS011;53672;48.176;16.338;2022-10-16T02:55:21;97.50;;;35.67;;
66761;SDS011;53672;48.176;16.338;2022-10-16T03:00:23;99.65;;;35.10;;
66761;SDS011;53672;48.176;16.338;2022-10-16T03:05:23;86.80;;;33.77;;
66761;SDS011;53672;48.176;16.338;2022-10-16T03:10:24;103.43;;;34.77;;
66761;SDS011;53672;48.176;16.338;2022-10-16T03:15:26;91.40;;;34.57;;
66761;SDS011;53672;48.176;16.338;2022-10-16T03:20:26;94.00;;;33.17;;
66761;SDS011;53672;48.176;16.338;2022-10-16T03:25:27;87.53;;;32.30;;
66761;SDS011;53672;48.176;16.338;2022-10-16T03:30:29;101.47;;;34.53;;
66761;SDS011;53672;48.176;16.338;2022-10-16T03:35:29;178.30;;;39.40;;
66761;SDS011;53672;48.176;16.338;2022-10-16T03:40:30;93.23;;;33.47;;
66761;SDS011;53672;48.176;16.338;2022-10-16T03:45:32;112.10;;;35.90;;
66761;SDS011;53672;48.176;16.338;2022-10-16T03:50:32;159.45;;;35.45;;
66761;SDS011;53672;48.176;16.338;2022-10-16T03:55:33;226.63;;;37.47;;
66761;SDS011;53672;48.176;16.338;2022-10-16T04:00:35;139.60;;;33.30;;
66761;SDS011;53672;48.176;16.338;2022-10-16T04:05:40;262.13;;;41.13;;
66761;SDS011;53672;48.176;16.338;2022-10-16T04:10:42;128.23;;;34.97;;
66761;SDS011;53672;48.176;16.338;2022-10-16T04:15:45;252.85;;;39.08;;
66761;SDS011;53672;48.176;16.338;2022-10-16T04:20:46;161.37;;;33.90;;
66761;SDS011;53672;48.176;16.338;2022-10-16T04:25:46;201.30;;;31.88;;
66761;SDS011;53672;48.176;16.338;2022-10-16T04:30:48;120.22;;;29.98;;
66761;SDS011;53672;48.176;16.338;2022-10-16T04:35:55;159.77;;;33.77;;
66761;SDS011;53672;48.176;16.338;2022-10-16T04:40:56;163.68;;;36.05;;
66761;SDS011;53672;48.176;16.338;2022-10-16T04:45:58;162.80;;;33.23;;
66761;SDS011;53672;48.176;16.338;2022-10-16T04:50:58;96.50;;;30.45;;
66761;SDS011;53672;48.176;16.338;2022-10-16T04:55:59;117.85;;;28.13;;
66761;SDS011;53672;48.176;16.338;2022-10-16T05:01:01;81.07;;;27.40;;
66761;SDS011;53672;48.176;16.338;2022-10-16T05:06:01;117.27;;;30.07;;
66761;SDS011;53672;48.176;16.338;2022-10-16T05:11:02;92.25;;;29.42;;
66761;SDS011;53672;48.176;16.338;2022-10-16T05:16:04;101.45;;;29.27;;
66761;SDS011;53672;48.176;16.338;2022-10-16T05:21:05;85.87;;;28.90;;
66761;SDS011;53672;48.176;16.338;2022-10-16T05:26:05;85.53;;;29.07;;
66761;SDS011;53672;48.176;16.338;2022-10-16T05:31:08;85.57;;;28.15;;
66761;SDS011;53672;48.176;16.338;2022-10-16T05:36:09;95.50;;;29.27;;
66761;SDS011;53672;48.176;16.338;2022-10-16T05:41:10;106.32;;;31.25;;
66761;SDS011;53672;48.176;16.338;2022-10-16T05:46:12;70.33;;;25.80;;
66761;SDS011;53672;48.176;16.338;2022-10-16T05:51:13;76.13;;;28.60;;
66761;SDS011;53672;48.176;16.338;2022-10-16T05:56:14;62.35;;;25.85;;
66761;SDS011;53672;48.176;16.338;2022-10-16T06:01:17;58.83;;;24.97;;
66761;SDS011;53672;48.176;16.338;2022-10-16T06:06:19;66.30;;;24.60;;
66761;SDS011;53672;48.176;16.338;2022-10-16T06:11:22;59.90;;;25.17;;
66761;SDS011;53672;48.176;16.338;2022-10-16T06:16:26;67.23;;;25.33;;
66761;SDS011;53672;48.176;16.338;2022-10-16T06:21:27;91.50;;;29.55;;
66761;SDS011;53672;48.176;16.338;2022-10-16T06:26:29;70.40;;;29.43;;
66761;SDS011;53672;48.176;16.338;2022-10-16T06:31:32;96.70;;;31.38;;
66761;SDS011;53672;48.176;16.338;2022-10-16T06:36:32;85.20;;;31.27;;
66761;SDS011;53672;48.176;16.338;2022-10-16T06:41:33;135.83;;;34.07;;
66761;SDS011;53672;48.176;16.338;2022-10-16T06:46:35;90.73;;;32.73;;
66761;SDS011;53672;48.176;16.338;2022-10-16T06:51:36;108.53;;;33.67;;
66761;SDS011;53672;48.176;16.338;2022-10-16T06:56:36;110.30;;;34.47;;
66761;SDS011;53672;48.176;16.338;2022-10-16T07:01:38;121.87;;;36.27;;
66761;SDS011;53672;48.176;16.338;2022-10-16T07:06:38;100.68;;;33.92;;
66761;SDS011;53672;48.176;16.338;2022-10-16T07:11:39;101.90;;;36.47;;
66761;SDS011;53672;48.176;16.338;2022-10-16T07:16:42;88.13;;;34.58;;
66761;SDS011;53672;48.176;16.338;2022-10-16T07:21:42;97.82;;;35.72;;
66761;SDS011;53672;48.176;16.338;2022-10-16T07:26:44;96.30;;;33.63;;
66761;SDS011;53672;48.176;16.338;2022-10-16T07:31:47;86.90;;;34.00;;
66761;SDS011;53672;48.176;16.338;2022-10-16T07:36:48;83.25;;;32.83;;
66761;SDS011;53672;48.176;16.338;2022-10-16T07:41:49;102.20;;;36.00;;
66761;SDS011;53672;48.176;16.338;2022-10-16T07:46:51;95.60;;;35.13;;
66761;SDS011;53672;48.176;16.338;2022-10-16T07:51:51;166.40;;;36.03;;
66761;SDS011;53672;48.176;16.338;2022-10-16T07:56:52;105.80;;;34.43;;
66761;SDS011;53672;48.176;16.338;2022-10-16T08:01:53;156.27;;;38.37;;
66761;SDS011;53672;48.176;16.338;2022-10-16T08:06:54;102.18;;;36.58;;
66761;SDS011;53672;48.176;16.338;2022-10-16T08:11:54;97.33;;;34.63;;
66761;SDS011;53672;48.176;16.338;2022-10-16T08:16:56;76.43;;;33.33;;
66761;SDS011;53672;48.176;16.338;2022-10-16T08:21:57;72.32;;;31.88;;
66761;SDS011;53672;48.176;16.338;2022-10-16T08:26:58;62.83;;;30.67;;
66761;SDS011;53672;48.176;16.338;2022-10-16T08:32:00;73.17;;;32.73;;
66761;SDS011;53672;48.176;16.338;2022-10-16T08:37:00;66.07;;;31.55;;
66761;SDS011;53672;48.176;16.338;2022-10-16T08:42:11;70.33;;;33.93;;
66761;SDS011;53672;48.176;16.338;2022-10-16T08:47:27;70.68;;;32.92;;
66761;SDS011;53672;48.176;16.338;2022-10-16T08:52:38;75.15;;;32.13;;
66761;SDS011;53672;48.176;16.338;2022-10-16T08:57:41;69.20;;;32.80;;
66761;SDS011;53672;48.176;16.338;2022-10-16T09:02:44;64.57;;;30.93;;
66761;SDS011;53672;48.176;16.338;2022-10-16T09:07:53;83.77;;;32.10;;
66761;SDS011;53672;48.176;16.338;2022-10-16T09:13:01;65.53;;;29.90;;
66761;SDS011;53672;48.176;16.338;2022-10-16T09:18:15;56.38;;;28.15;;
66761;SDS011;53672;48.176;16.338;2022-10-16T09:23:22;68.20;;;30.87;;
66761;SDS011;53672;48.176;16.338;2022-10-16T09:28:26;61.55;;;31.10;;
66761;SDS011;53672;48.176;16.338;2022-10-16T09:33:29;55.53;;;28.07;;
66761;SDS011;53672;48.176;16.338;2022-10-16T09:38:34;52.45;;;26.90;;
66761;SDS011;53672;48.176;16.338;2022-10-16T09:43:36;52.30;;;25.93;;
66761;SDS011;53672;48.176;16.338;2022-10-16T09:48:44;52.42;;;28.48;;
66761;SDS011;53672;48.176;16.338;2022-10-16T09:53:48;54.70;;;29.08;;
66761;SDS011;53672;48.176;16.338;2022-10-16T09:58:49;54.05;;;27.33;;
66761;SDS011;53672;48.176;16.338;2022-10-16T10:03:55;54.37;;;27.97;;
66761;SDS011;53672;48.176;16.338;2022-10-16T10:08:57;53.05;;;27.45;;
66761;SDS011;53672;48.176;16.338;2022-10-16T10:14:03;54.53;;;27.73;;
66761;SDS011;53672;48.176;16.338;2022-10-16T10:19:09;58.17;;;28.85;;
66761;SDS011;53672;48.176;16.338;2022-10-16T10:24:15;56.80;;;27.27;;
66761;SDS011;53672;48.176;16.338;2022-10-16T10:29:19;61.97;;;30.10;;
66761;SDS011;53672;48.176;16.338;2022-10-16T10:34:38;59.50;;;28.92;;
66761;SDS011;53672;48.176;16.338;2022-10-16T10:39:53;54.83;;;28.45;;
66761;SDS011;53672;48.176;16.338;2022-10-16T10:45:05;54.22;;;28.02;;
66761;SDS011;53672;48.176;16.338;2022-10-16T10:50:20;51.25;;;26.70;;
66761;SDS011;53672;48.176;16.338;2022-10-16T10:55:27;51.30;;;27.87;;
66761;SDS011;53672;48.176;16.338;2022-10-16T11:00:40;51.70;;;27.20;;
66761;SDS011;53672;48.176;16.338;2022-10-16T11:05:52;50.53;;;27.65;;
66761;SDS011;53672;48.176;16.338;2022-10-16T11:10:57;50.78;;;26.35;;
66761;SDS011;53672;48.176;16.338;2022-10-16T11:16:00;47.55;;;25.38;;
66761;SDS011;53672;48.176;16.338;2022-10-16T11:21:06;47.23;;;26.10;;
66761;SDS011;53672;48.176;16.338;2022-10-16T11:26:11;47.42;;;26.13;;
66761;SDS011;53672;48.176;16.338;2022-10-16T11:31:17;50.38;;;27.00;;
66761;SDS011;53672;48.176;16.338;2022-10-16T11:36:25;53.13;;;28.60;;
66761;SDS011;53672;48.176;16.338;2022-10-16T11:41:32;50.08;;;27.38;;
66761;SDS011;53672;48.176;16.338;2022-10-16T11:46:36;46.30;;;25.83;;
66761;SDS011;53672;48.176;16.338;2022-10-16T11:51:43;44.38;;;26.10;;
66761;SDS011;53672;48.176;16.338;2022-10-16T11:56:49;42.30;;;23.77;;
66761;SDS011;53672;48.176;16.338;2022-10-16T12:01:57;38.75;;;23.98;;
66761;SDS011;53672;48.176;16.338;2022-10-16T12:07:11;41.60;;;25.70;;
66761;SDS011;53672;48.176;16.338;2022-10-16T12:12:24;44.10;;;25.50;;
66761;SDS011;53672;48.176;16.338;2022-10-16T12:17:26;37.75;;;25.25;;
66761;SDS011;53672;48.176;16.338;2022-10-16T12:22:35;40.30;;;24.77;;
66761;SDS011;53672;48.176;16.338;2022-10-16T12:27:36;40.83;;;25.45;;
66761;SDS011;53672;48.176;16.338;2022-10-16T12:32:37;41.53;;;25.63;;
66761;SDS011;53672;48.176;16.338;2022-10-16T12:37:41;40.75;;;26.20;;
66761;SDS011;53672;48.176;16.338;2022-10-16T12:42:41;40.25;;;25.33;;
66761;SDS011;53672;48.176;16.338;2022-10-16T12:47:48;41.33;;;26.17;;
66761;SDS011;53672;48.176;16.338;2022-10-16T12:52:51;41.30;;;26.17;;
66761;SDS011;53672;48.176;16.338;2022-10-16T12:58:00;41.20;;;26.35;;
66761;SDS011;53672;48.176;16.338;2022-10-16T13:08:51;43.97;;;27.50;;
66761;SDS011;53672;48.176;16.338;2022-10-16T13:14:10;43.60;;;27.67;;
66761;SDS011;53672;48.176;16.338;2022-10-16T13:19:26;46.28;;;27.98;;
66761;SDS011;53672;48.176;16.338;2022-10-16T13:24:36;45.03;;;27.15;;
66761;SDS011;53672;48.176;16.338;2022-10-16T13:29:46;47.85;;;27.98;;
66761;SDS011;53672;48.176;16.338;2022-10-16T13:34:53;48.27;;;28.93;;
66761;SDS011;53672;48.176;16.338;2022-10-16T13:40:04;48.87;;;29.40;;
66761;SDS011;53672;48.176;16.338;2022-10-16T13:45:18;49.17;;;29.35;;
66761;SDS011;53672;48.176;16.338;2022-10-16T13:50:19;50.03;;;29.17;;
66761;SDS011;53672;48.176;16.338;2022-10-16T13:55:21;50.57;;;29.30;;
66761;SDS011;53672;48.176;16.338;2022-10-16T14:00:22;47.67;;;28.77;;
66761;SDS011;53672;48.176;16.338;2022-10-16T14:05:24;50.92;;;30.10;;
66761;SDS011;53672;48.176;16.338;2022-10-16T14:10:27;49.77;;;30.43;;
66761;SDS011;53672;48.176;16.338;2022-10-16T14:15:30;50.13;;;29.13;;
66761;SDS011;53672;48.176;16.338;2022-10-16T14:20:33;50.27;;;28.97;;
66761;SDS011;53672;48.176;16.338;2022-10-16T14:25:35;50.30;;;30.13;;
66761;SDS011;53672;48.176;16.338;2022-10-16T14:30:36;51.10;;;29.67;;
66761;SDS011;53672;48.176;16.338;2022-10-16T14:35:37;45.43;;;27.07;;
66761;SDS011;53672;48.176;16.338;2022-10-16T14:40:45;46.87;;;27.10;;
66761;SDS011;53672;48.176;16.338;2022-10-16T14:45:50;49.28;;;28.63;;
66761;SDS011;53672;48.176;16.338;2022-10-16T14:50:53;46.13;;;27.65;;
66761;SDS011;53672;48.176;16.338;2022-10-16T14:55:55;49.20;;;26.05;;
66761;SDS011;53672;48.176;16.338;2022-10-16T15:00:55;40.03;;;24.07;;
66761;SDS011;53672;48.176;16.338;2022-10-16T15:05:56;47.60;;;24.63;;
66761;SDS011;53672;48.176;16.338;2022-10-16T15:10:58;39.70;;;23.80;;
66761;SDS011;53672;48.176;16.338;2022-10-16T15:15:58;42.28;;;23.27;;
66761;SDS011;53672;48.176;16.338;2022-10-16T15:20:59;41.93;;;22.70;;
66761;SDS011;53672;48.176;16.338;2022-10-16T15:26:00;36.93;;;22.23;;
66761;SDS011;53672;48.176;16.338;2022-10-16T15:31:01;39.53;;;22.80;;
66761;SDS011;53672;48.176;16.338;2022-10-16T15:36:04;39.42;;;23.00;;
66761;SDS011;53672;48.176;16.338;2022-10-16T15:41:07;39.88;;;22.98;;
66761;SDS011;53672;48.176;16.338;2022-10-16T15:46:09;40.50;;;22.17;;
66761;SDS011;53672;48.176;16.338;2022-10-16T15:51:12;38.97;;;22.37;;
66761;SDS011;53672;48.176;16.338;2022-10-16T15:56:14;41.00;;;22.77;;
66761;SDS011;53672;48.176;16.338;2022-10-16T16:01:14;38.63;;;22.17;;
66761;SDS011;53672;48.176;16.338;2022-10-16T16:06:15;39.37;;;22.57;;
66761;SDS011;53672;48.176;16.338;2022-10-16T16:11:17;39.53;;;22.02;;
66761;SDS011;53672;48.176;16.338;2022-10-16T16:16:18;39.08;;;21.95;;
66761;SDS011;53672;48.176;16.338;2022-10-16T16:21:19;38.50;;;22.53;;
66761;SDS011;53672;48.176;16.338;2022-10-16T16:26:23;36.53;;;21.23;;
66761;SDS011;53672;48.176;16.338;2022-10-16T16:31:25;37.45;;;20.08;;
66761;SDS011;53672;48.176;16.338;2022-10-16T16:36:27;37.70;;;19.75;;
66761;SDS011;53672;48.176;16.338;2022-10-16T16:41:29;40.40;;;21.13;;
66761;SDS011;53672;48.176;16.338;2022-10-16T16:46:30;39.37;;;21.80;;
66761;SDS011;53672;48.176;16.338;2022-10-16T16:51:32;37.55;;;21.38;;
66761;SDS011;53672;48.176;16.338;2022-10-16T16:56:35;37.72;;;20.52;;
66761;SDS011;53672;48.176;16.338;2022-10-16T17:01:36;35.92;;;20.92;;
66761;SDS011;53672;48.176;16.338;2022-10-16T17:06:37;39.58;;;21.98;;
66761;SDS011;53672;48.176;16.338;2022-10-16T17:11:40;38.03;;;21.33;;
66761;SDS011;53672;48.176;16.338;2022-10-16T17:16:42;37.90;;;22.17;;
66761;SDS011;53672;48.176;16.338;2022-10-16T17:21:43;41.17;;;21.75;;
66761;SDS011;53672;48.176;16.338;2022-10-16T17:26:44;40.10;;;21.77;;
66761;SDS011;53672;48.176;16.338;2022-10-16T17:31:45;42.90;;;23.10;;
66761;SDS011;53672;48.176;16.338;2022-10-16T17:36:47;42.28;;;21.85;;
66761;SDS011;53672;48.176;16.338;2022-10-16T17:41:52;40.70;;;21.33;;
66761;SDS011;53672;48.176;16.338;2022-10-16T17:46:53;37.45;;;21.25;;
66761;SDS011;53672;48.176;16.338;2022-10-16T17:51:54;40.88;;;22.77;;
66761;SDS011;53672;48.176;16.338;2022-10-16T17:56:56;42.00;;;23.17;;
66761;SDS011;53672;48.176;16.338;2022-10-16T18:01:57;43.10;;;23.23;;
66761;SDS011;53672;48.176;16.338;2022-10-16T18:06:58;45.45;;;23.77;;
66761;SDS011;53672;48.176;16.338;2022-10-16T18:12:01;41.67;;;22.30;;
66761;SDS011;53672;48.176;16.338;2022-10-16T18:17:02;44.33;;;23.02;;
66761;SDS011;53672;48.176;16.338;2022-10-16T18:22:03;41.67;;;22.73;;
66761;SDS011;53672;48.176;16.338;2022-10-16T18:27:05;43.33;;;22.30;;
66761;SDS011;53672;48.176;16.338;2022-10-16T18:32:06;44.13;;;21.23;;
66761;SDS011;53672;48.176;16.338;2022-10-16T18:37:07;41.70;;;22.27;;
66761;SDS011;53672;48.176;16.338;2022-10-16T18:42:10;39.77;;;21.07;;
66761;SDS011;53672;48.176;16.338;2022-10-16T18:47:12;40.80;;;22.08;;
66761;SDS011;53672;48.176;16.338;2022-10-16T18:52:13;41.10;;;22.10;;
66761;SDS011;53672;48.176;16.338;2022-10-16T18:57:15;44.63;;;22.17;;
66761;SDS011;53672;48.176;16.338;2022-10-16T19:02:17;41.72;;;21.40;;
66761;SDS011;53672;48.176;16.338;2022-10-16T19:07:18;41.70;;;21.13;;
66761;SDS011;53672;48.176;16.338;2022-10-16T19:12:20;39.28;;;21.08;;
66761;SDS011;53672;48.176;16.338;2022-10-16T19:17:22;43.50;;;21.23;;
66761;SDS011;53672;48.176;16.338;2022-10-16T19:22:22;46.97;;;22.15;;
66761;SDS011;53672;48.176;16.338;2022-10-16T19:27:26;47.25;;;23.60;;
66761;SDS011;53672;48.176;16.338;2022-10-16T19:32:27;41.27;;;21.80;;
66761;SDS011;53672;48.176;16.338;2022-10-16T19:37:28;43.53;;;21.48;;
66761;SDS011;53672;48.176;16.338;2022-10-16T19:42:30;45.80;;;22.97;;
66761;SDS011;53672;48.176;16.338;2022-10-16T19:47:31;46.28;;;23.13;;
66761;SDS011;53672;48.176;16.338;2022-10-16T19:52:32;47.47;;;23.40;;
66761;SDS011;53672;48.176;16.338;2022-10-16T19:57:34;46.13;;;24.37;;
66761;SDS011;53672;48.176;16.338;2022-10-16T20:02:35;46.35;;;23.15;;
66761;SDS011;53672;48.176;16.338;2022-10-16T20:07:35;49.47;;;24.53;;
66761;SDS011;53672;48.176;16.338;2022-10-16T20:12:37;49.03;;;23.70;;
66761;SDS011;53672;48.176;16.338;2022-10-16T20:17:38;48.93;;;23.97;;
66761;SDS011;53672;48.176;16.338;2022-10-16T20:22:39;55.67;;;25.48;;
66761;SDS011;53672;48.176;16.338;2022-10-16T20:27:41;51.17;;;24.98;;
66761;SDS011;53672;48.176;16.338;2022-10-16T20:32:41;58.17;;;26.07;;
66761;SDS011;53672;48.176;16.338;2022-10-16T20:37:42;54.70;;;26.20;;
66761;SDS011;53672;48.176;16.338;2022-10-16T20:42:44;52.05;;;26.00;;
66761;SDS011;53672;48.176;16.338;2022-10-16T20:47:45;59.55;;;27.58;;
66761;SDS011;53672;48.176;16.338;2022-10-16T20:52:45;57.65;;;28.35;;
66761;SDS011;53672;48.176;16.338;2022-10-16T20:57:47;61.00;;;28.50;;
66761;SDS011;53672;48.176;16.338;2022-10-16T21:02:48;57.33;;;27.43;;
66761;SDS011;53672;48.176;16.338;2022-10-16T21:07:49;57.85;;;27.60;;
66761;SDS011;53672;48.176;16.338;2022-10-16T21:12:52;58.47;;;27.63;;
66761;SDS011;53672;48.176;16.338;2022-10-16T21:17:53;61.60;;;29.20;;
66761;SDS011;53672;48.176;16.338;2022-10-16T21:22:54;68.33;;;30.70;;
66761;SDS011;53672;48.176;16.338;2022-10-16T21:27:56;69.83;;;31.33;;
66761;SDS011;53672;48.176;16.338;2022-10-16T21:32:56;65.75;;;28.77;;
66761;SDS011;53672;48.176;16.338;2022-10-16T21:37:57;65.22;;;29.67;;
66761;SDS011;53672;48.176;16.338;2022-10-16T21:42:58;62.93;;;29.40;;
66761;SDS011;53672;48.176;16.338;2022-10-16T21:47:59;69.40;;;31.63;;
66761;SDS011;53672;48.176;16.338;2022-10-16T21:53:00;75.33;;;32.90;;
66761;SDS011;53672;48.176;16.338;2022-10-16T21:58:02;74.10;;;33.47;;
66761;SDS011;53672;48.176;16.338;2022-10-16T22:03:02;72.20;;;32.33;;
66761;SDS011;53672;48.176;16.338;2022-10-16T22:08:03;77.40;;;32.78;;
66761;SDS011;53672;48.176;16.338;2022-10-16T22:13:05;79.27;;;34.10;;
66761;SDS011;53672;48.176;16.338;2022-10-16T22:18:05;73.93;;;32.30;;
66761;SDS011;53672;48.176;16.338;2022-10-16T22:23:06;75.53;;;33.25;;
66761;SDS011;53672;48.176;16.338;2022-10-16T22:28:08;75.77;;;32.33;;
66761;SDS011;53672;48.176;16.338;2022-10-16T22:33:08;82.70;;;34.13;;
66761;SDS011;53672;48.176;16.338;2022-10-16T22:38:10;78.95;;;33.63;;
66761;SDS011;53672;48.176;16.338;2022-10-16T22:43:11;73.63;;;33.83;;
66761;SDS011;53672;48.176;16.338;2022-10-16T22:48:12;79.47;;;34.25;;
66761;SDS011;53672;48.176;16.338;2022-10-16T22:53:12;75.80;;;31.93;;
66761;SDS011;53672;48.176;16.338;2022-10-16T22:58:14;90.37;;;35.30;;
66761;SDS011;53672;48.176;16.338;2022-10-16T23:03:15;89.35;;;34.45;;
66761;SDS011;53672;48.176;16.338;2022-10-16T23:08:15;83.68;;;33.03;;
66761;SDS011;53672;48.176;16.338;2022-10-16T23:13:18;90.40;;;35.33;;
66761;SDS011;53672;48.176;16.338;2022-10-16T23:18:18;92.10;;;35.63;;
66761;SDS011;53672;48.176;16.338;2022-10-16T23:23:19;80.60;;;33.67;;
66761;SDS011;53672;48.176;16.338;2022-10-16T23:28:20;74.40;;;32.60;;
66761;SDS011;53672;48.176;16.338;2022-10-16T23:33:21;72.35;;;31.70;;
66761;SDS011;53672;48.176;16.338;2022-10-16T23:38:21;77.47;;;31.53;;
66761;SDS011;53672;48.176;16.338;2022-10-16T23:43:23;68.30;;;30.60;;
66761;SDS011;53672;48.176;16.338;2022-10-16T23:48:24;67.47;;;31.10;;
66761;SDS011;53672;48.176;16.338;2022-10-16T23:53:24;70.13;;;31.15;;
66761;SDS011;53672;48.176;16.338;2022-10-16T23:58:27;68.47;;;31.88;;
